Terminal Aerodrome Forecast
Issued by NWS Jacksonville, FL

Home | Current Version | Previous Version | Text Only | Print | Product List | Glossary On
Versions: 1 2 3 4 5 6 7 8 9 10 11 12 13 14 15 16 17 18
000
FTUS42 KJAX 270900 AAD
TAFGNV
TAF AMD
KGNV 270925Z 2709/2806 00000KT 1SM BR OVC002
      TEMPO 2709/2712 1/4SM FG OVC002
     FM271400 06007KT P6SM BKN030 BKN060
     FM280100 07003KT 5SM BR OVC020=

USA.gov is the U.S. government's official web portal to all federal, state and local government web resources and services.